sensor_id;sensor_type;location;lat;lon;timestamp;P1;durP1;ratioP1;P2;durP2;ratioP2
4519;SDS011;2272;49.226;8.108;2022-09-13T00:02:12;3.77;;;3.53;;
4519;SDS011;2272;49.226;8.108;2022-09-13T00:04:39;3.57;;;3.37;;
4519;SDS011;2272;49.226;8.108;2022-09-13T00:07:06;3.33;;;3.13;;
4519;SDS011;2272;49.226;8.108;2022-09-13T00:09:34;5.00;;;3.03;;
4519;SDS011;2272;49.226;8.108;2022-09-13T00:12:01;3.60;;;3.40;;
4519;SDS011;2272;49.226;8.108;2022-09-13T00:14:28;3.03;;;2.90;;
4519;SDS011;2272;49.226;8.108;2022-09-13T00:16:55;3.33;;;3.13;;
4519;SDS011;2272;49.226;8.108;2022-09-13T00:19:21;3.57;;;3.37;;
4519;SDS011;2272;49.226;8.108;2022-09-13T00:21:48;3.37;;;3.17;;
4519;SDS011;2272;49.226;8.108;2022-09-13T00:24:15;3.40;;;3.30;;
4519;SDS011;2272;49.226;8.108;2022-09-13T00:26:43;3.50;;;3.07;;
4519;SDS011;2272;49.226;8.108;2022-09-13T00:29:10;3.63;;;3.40;;
4519;SDS011;2272;49.226;8.108;2022-09-13T00:31:36;3.80;;;3.60;;
4519;SDS011;2272;49.226;8.108;2022-09-13T00:34:03;3.33;;;3.13;;
4519;SDS011;2272;49.226;8.108;2022-09-13T00:36:30;2.93;;;2.83;;
4519;SDS011;2272;49.226;8.108;2022-09-13T00:38:56;3.20;;;3.00;;
4519;SDS011;2272;49.226;8.108;2022-09-13T00:41:24;3.67;;;3.47;;
4519;SDS011;2272;49.226;8.108;2022-09-13T00:43:54;5.27;;;3.27;;
4519;SDS011;2272;49.226;8.108;2022-09-13T00:46:24;3.83;;;3.53;;
4519;SDS011;2272;49.226;8.108;2022-09-13T00:48:58;4.83;;;3.20;;
4519;SDS011;2272;49.226;8.108;2022-09-13T00:51:28;3.50;;;3.30;;
4519;SDS011;2272;49.226;8.108;2022-09-13T00:53:56;3.73;;;3.53;;
4519;SDS011;2272;49.226;8.108;2022-09-13T00:56:26;4.00;;;3.73;;
4519;SDS011;2272;49.226;8.108;2022-09-13T00:58:59;3.37;;;3.17;;
4519;SDS011;2272;49.226;8.108;2022-09-13T01:01:29;3.73;;;3.53;;
4519;SDS011;2272;49.226;8.108;2022-09-13T01:04:00;4.80;;;4.20;;
4519;SDS011;2272;49.226;8.108;2022-09-13T01:06:28;3.40;;;3.10;;
4519;SDS011;2272;49.226;8.108;2022-09-13T01:08:58;3.47;;;3.30;;
4519;SDS011;2272;49.226;8.108;2022-09-13T01:11:29;4.17;;;3.87;;
4519;SDS011;2272;49.226;8.108;2022-09-13T01:14:03;3.97;;;3.70;;
4519;SDS011;2272;49.226;8.108;2022-09-13T01:16:30;3.83;;;3.63;;
4519;SDS011;2272;49.226;8.108;2022-09-13T01:18:57;4.00;;;3.73;;
4519;SDS011;2272;49.226;8.108;2022-09-13T01:27:22;10.70;;;3.57;;
4519;SDS011;2272;49.226;8.108;2022-09-13T01:30:12;4.30;;;4.00;;
4519;SDS011;2272;49.226;8.108;2022-09-13T01:35:46;4.00;;;3.70;;
4519;SDS011;2272;49.226;8.108;2022-09-13T01:38:32;3.67;;;3.47;;
4519;SDS011;2272;49.226;8.108;2022-09-13T01:41:20;4.07;;;3.63;;
4519;SDS011;2272;49.226;8.108;2022-09-13T01:44:02;4.50;;;3.60;;
4519;SDS011;2272;49.226;8.108;2022-09-13T01:46:37;4.03;;;3.83;;
4519;SDS011;2272;49.226;8.108;2022-09-13T01:49:11;4.17;;;3.87;;
4519;SDS011;2272;49.226;8.108;2022-09-13T01:51:43;3.83;;;3.63;;
4519;SDS011;2272;49.226;8.108;2022-09-13T01:54:16;4.20;;;3.90;;
4519;SDS011;2272;49.226;8.108;2022-09-13T01:56:50;4.30;;;4.00;;
4519;SDS011;2272;49.226;8.108;2022-09-13T01:59:22;4.70;;;4.30;;
4519;SDS011;2272;49.226;8.108;2022-09-13T02:01:56;4.70;;;4.30;;
4519;SDS011;2272;49.226;8.108;2022-09-13T02:04:26;4.43;;;4.03;;
4519;SDS011;2272;49.226;8.108;2022-09-13T02:06:57;4.73;;;3.33;;
4519;SDS011;2272;49.226;8.108;2022-09-13T02:09:29;4.30;;;4.10;;
4519;SDS011;2272;49.226;8.108;2022-09-13T02:12:01;3.80;;;3.60;;
4519;SDS011;2272;49.226;8.108;2022-09-13T02:14:33;3.73;;;3.37;;
4519;SDS011;2272;49.226;8.108;2022-09-13T02:17:04;3.70;;;3.43;;
4519;SDS011;2272;49.226;8.108;2022-09-13T02:19:34;3.77;;;3.57;;
4519;SDS011;2272;49.226;8.108;2022-09-13T02:22:05;3.97;;;3.77;;
4519;SDS011;2272;49.226;8.108;2022-09-13T02:24:34;4.20;;;4.00;;
4519;SDS011;2272;49.226;8.108;2022-09-13T02:27:05;5.07;;;4.03;;
4519;SDS011;2272;49.226;8.108;2022-09-13T02:29:35;4.40;;;4.10;;
4519;SDS011;2272;49.226;8.108;2022-09-13T02:32:08;4.00;;;3.80;;
4519;SDS011;2272;49.226;8.108;2022-09-13T02:34:40;4.23;;;4.00;;
4519;SDS011;2272;49.226;8.108;2022-09-13T02:37:10;4.67;;;4.37;;
4519;SDS011;2272;49.226;8.108;2022-09-13T02:39:39;4.00;;;3.80;;
4519;SDS011;2272;49.226;8.108;2022-09-13T02:42:09;4.10;;;3.80;;
4519;SDS011;2272;49.226;8.108;2022-09-13T02:44:41;3.70;;;3.43;;
4519;SDS011;2272;49.226;8.108;2022-09-13T02:47:15;3.47;;;3.37;;
4519;SDS011;2272;49.226;8.108;2022-09-13T02:49:54;3.70;;;3.50;;
4519;SDS011;2272;49.226;8.108;2022-09-13T02:52:31;3.93;;;3.47;;
4519;SDS011;2272;49.226;8.108;2022-09-13T02:55:06;4.03;;;3.73;;
4519;SDS011;2272;49.226;8.108;2022-09-13T02:57:39;4.30;;;4.00;;
4519;SDS011;2272;49.226;8.108;2022-09-13T03:00:15;4.20;;;3.90;;
4519;SDS011;2272;49.226;8.108;2022-09-13T03:02:44;4.30;;;4.00;;
4519;SDS011;2272;49.226;8.108;2022-09-13T03:05:14;4.37;;;3.97;;
4519;SDS011;2272;49.226;8.108;2022-09-13T03:07:41;3.57;;;3.37;;
4519;SDS011;2272;49.226;8.108;2022-09-13T03:10:08;4.07;;;3.70;;
4519;SDS011;2272;49.226;8.108;2022-09-13T03:13:01;3.60;;;3.40;;
4519;SDS011;2272;49.226;8.108;2022-09-13T03:15:44;3.53;;;3.33;;
4519;SDS011;2272;49.226;8.108;2022-09-13T03:18:25;3.77;;;3.57;;
4519;SDS011;2272;49.226;8.108;2022-09-13T03:21:04;3.53;;;3.37;;
4519;SDS011;2272;49.226;8.108;2022-09-13T03:23:40;5.53;;;4.10;;
4519;SDS011;2272;49.226;8.108;2022-09-13T03:26:17;4.30;;;3.93;;
4519;SDS011;2272;49.226;8.108;2022-09-13T03:28:55;7.47;;;4.07;;
4519;SDS011;2272;49.226;8.108;2022-09-13T03:31:31;4.00;;;3.70;;
4519;SDS011;2272;49.226;8.108;2022-09-13T03:34:05;4.70;;;4.00;;
4519;SDS011;2272;49.226;8.108;2022-09-13T03:36:35;5.37;;;3.73;;
4519;SDS011;2272;49.226;8.108;2022-09-13T03:39:07;5.53;;;3.73;;
4519;SDS011;2272;49.226;8.108;2022-09-13T03:41:41;9.07;;;4.37;;
4519;SDS011;2272;49.226;8.108;2022-09-13T03:44:12;7.13;;;3.93;;
4519;SDS011;2272;49.226;8.108;2022-09-13T03:46:43;3.67;;;3.47;;
4519;SDS011;2272;49.226;8.108;2022-09-13T03:49:15;3.87;;;3.57;;
4519;SDS011;2272;49.226;8.108;2022-09-13T03:51:44;4.00;;;3.70;;
4519;SDS011;2272;49.226;8.108;2022-09-13T03:54:14;3.40;;;3.20;;
4519;SDS011;2272;49.226;8.108;2022-09-13T03:59:34;5.10;;;3.90;;
4519;SDS011;2272;49.226;8.108;2022-09-13T04:02:02;3.23;;;3.10;;
4519;SDS011;2272;49.226;8.108;2022-09-13T04:04:31;3.50;;;3.30;;
4519;SDS011;2272;49.226;8.108;2022-09-13T04:06:58;3.40;;;3.20;;
4519;SDS011;2272;49.226;8.108;2022-09-13T04:09:25;3.20;;;3.10;;
4519;SDS011;2272;49.226;8.108;2022-09-13T04:11:52;3.23;;;3.13;;
4519;SDS011;2272;49.226;8.108;2022-09-13T04:14:19;5.63;;;3.30;;
4519;SDS011;2272;49.226;8.108;2022-09-13T04:16:47;3.67;;;3.47;;
4519;SDS011;2272;49.226;8.108;2022-09-13T04:19:13;3.90;;;3.70;;
4519;SDS011;2272;49.226;8.108;2022-09-13T04:21:42;3.13;;;3.03;;
4519;SDS011;2272;49.226;8.108;2022-09-13T04:24:08;3.90;;;3.60;;
4519;SDS011;2272;49.226;8.108;2022-09-13T04:26:35;3.63;;;3.43;;
4519;SDS011;2272;49.226;8.108;2022-09-13T04:29:03;2.80;;;2.70;;
4519;SDS011;2272;49.226;8.108;2022-09-13T04:31:29;5.33;;;3.30;;
4519;SDS011;2272;49.226;8.108;2022-09-13T04:33:56;3.30;;;3.20;;
4519;SDS011;2272;49.226;8.108;2022-09-13T04:36:23;3.60;;;3.30;;
4519;SDS011;2272;49.226;8.108;2022-09-13T04:38:51;8.80;;;3.17;;
4519;SDS011;2272;49.226;8.108;2022-09-13T04:41:20;3.70;;;3.50;;
4519;SDS011;2272;49.226;8.108;2022-09-13T04:43:47;4.03;;;3.73;;
4519;SDS011;2272;49.226;8.108;2022-09-13T04:46:15;4.00;;;3.70;;
4519;SDS011;2272;49.226;8.108;2022-09-13T04:48:42;4.10;;;3.80;;
4519;SDS011;2272;49.226;8.108;2022-09-13T04:51:13;3.77;;;3.57;;
4519;SDS011;2272;49.226;8.108;2022-09-13T04:53:39;4.07;;;3.77;;
4519;SDS011;2272;49.226;8.108;2022-09-13T04:56:07;4.77;;;4.37;;
4519;SDS011;2272;49.226;8.108;2022-09-13T04:58:34;5.20;;;4.57;;
4519;SDS011;2272;49.226;8.108;2022-09-13T05:01:01;8.03;;;5.60;;
4519;SDS011;2272;49.226;8.108;2022-09-13T05:03:29;6.97;;;5.83;;
4519;SDS011;2272;49.226;8.108;2022-09-13T05:06:00;5.50;;;5.00;;
4519;SDS011;2272;49.226;8.108;2022-09-13T05:08:27;4.83;;;4.53;;
4519;SDS011;2272;49.226;8.108;2022-09-13T05:10:54;4.70;;;4.30;;
4519;SDS011;2272;49.226;8.108;2022-09-13T05:13:23;4.60;;;4.30;;
4519;SDS011;2272;49.226;8.108;2022-09-13T05:15:53;4.43;;;4.13;;
4519;SDS011;2272;49.226;8.108;2022-09-13T05:18:20;4.70;;;4.40;;
4519;SDS011;2272;49.226;8.108;2022-09-13T05:20:47;4.20;;;3.90;;
4519;SDS011;2272;49.226;8.108;2022-09-13T05:23:14;4.10;;;3.80;;
4519;SDS011;2272;49.226;8.108;2022-09-13T05:25:40;3.97;;;3.77;;
4519;SDS011;2272;49.226;8.108;2022-09-13T05:28:07;3.60;;;3.40;;
4519;SDS011;2272;49.226;8.108;2022-09-13T05:30:35;4.10;;;3.80;;
4519;SDS011;2272;49.226;8.108;2022-09-13T05:33:02;4.30;;;4.00;;
4519;SDS011;2272;49.226;8.108;2022-09-13T05:35:29;4.33;;;3.50;;
4519;SDS011;2272;49.226;8.108;2022-09-13T05:37:55;4.57;;;4.10;;
4519;SDS011;2272;49.226;8.108;2022-09-13T05:40:22;4.70;;;4.50;;
4519;SDS011;2272;49.226;8.108;2022-09-13T05:42:51;3.57;;;3.27;;
4519;SDS011;2272;49.226;8.108;2022-09-13T05:45:18;4.80;;;4.13;;
4519;SDS011;2272;49.226;8.108;2022-09-13T05:47:46;3.20;;;3.10;;
4519;SDS011;2272;49.226;8.108;2022-09-13T05:50:15;4.20;;;4.00;;
4519;SDS011;2272;49.226;8.108;2022-09-13T05:52:42;3.73;;;3.53;;
4519;SDS011;2272;49.226;8.108;2022-09-13T05:55:09;3.47;;;3.17;;
4519;SDS011;2272;49.226;8.108;2022-09-13T05:57:36;6.40;;;4.33;;
4519;SDS011;2272;49.226;8.108;2022-09-13T06:00:03;4.80;;;4.30;;
4519;SDS011;2272;49.226;8.108;2022-09-13T06:02:31;5.70;;;4.63;;
4519;SDS011;2272;49.226;8.108;2022-09-13T06:04:59;19.03;;;5.20;;
4519;SDS011;2272;49.226;8.108;2022-09-13T06:07:25;5.50;;;4.50;;
4519;SDS011;2272;49.226;8.108;2022-09-13T06:09:52;4.40;;;4.07;;
4519;SDS011;2272;49.226;8.108;2022-09-13T06:12:19;7.97;;;4.13;;
4519;SDS011;2272;49.226;8.108;2022-09-13T06:14:46;4.60;;;4.13;;
4519;SDS011;2272;49.226;8.108;2022-09-13T06:17:13;4.57;;;4.20;;
4519;SDS011;2272;49.226;8.108;2022-09-13T06:19:40;4.50;;;3.57;;
4519;SDS011;2272;49.226;8.108;2022-09-13T06:22:08;4.10;;;3.90;;
4519;SDS011;2272;49.226;8.108;2022-09-13T06:24:34;4.43;;;4.00;;
4519;SDS011;2272;49.226;8.108;2022-09-13T06:27:02;3.60;;;3.47;;
4519;SDS011;2272;49.226;8.108;2022-09-13T06:29:29;4.00;;;3.80;;
4519;SDS011;2272;49.226;8.108;2022-09-13T06:31:57;3.80;;;3.60;;
4519;SDS011;2272;49.226;8.108;2022-09-13T06:34:23;3.67;;;3.47;;
4519;SDS011;2272;49.226;8.108;2022-09-13T06:36:51;4.10;;;3.90;;
4519;SDS011;2272;49.226;8.108;2022-09-13T06:39:19;4.87;;;4.30;;
4519;SDS011;2272;49.226;8.108;2022-09-13T06:41:46;4.83;;;4.07;;
4519;SDS011;2272;49.226;8.108;2022-09-13T06:44:13;3.97;;;3.67;;
4519;SDS011;2272;49.226;8.108;2022-09-13T06:46:39;4.70;;;3.40;;
4519;SDS011;2272;49.226;8.108;2022-09-13T06:49:06;9.27;;;4.03;;
4519;SDS011;2272;49.226;8.108;2022-09-13T06:51:35;7.33;;;3.63;;
4519;SDS011;2272;49.226;8.108;2022-09-13T06:54:02;3.90;;;3.60;;
4519;SDS011;2272;49.226;8.108;2022-09-13T06:56:31;3.77;;;3.57;;
4519;SDS011;2272;49.226;8.108;2022-09-13T06:58:59;7.97;;;4.43;;
4519;SDS011;2272;49.226;8.108;2022-09-13T07:01:29;4.20;;;3.90;;
4519;SDS011;2272;49.226;8.108;2022-09-13T07:03:58;8.40;;;4.17;;
4519;SDS011;2272;49.226;8.108;2022-09-13T07:06:26;4.27;;;3.90;;
4519;SDS011;2272;49.226;8.108;2022-09-13T07:08:55;4.10;;;3.70;;
4519;SDS011;2272;49.226;8.108;2022-09-13T07:11:23;21.03;;;4.47;;
4519;SDS011;2272;49.226;8.108;2022-09-13T07:13:53;3.77;;;3.57;;
4519;SDS011;2272;49.226;8.108;2022-09-13T07:16:21;3.77;;;3.53;;
4519;SDS011;2272;49.226;8.108;2022-09-13T07:18:50;4.63;;;4.17;;
4519;SDS011;2272;49.226;8.108;2022-09-13T07:21:17;4.23;;;3.90;;
4519;SDS011;2272;49.226;8.108;2022-09-13T07:23:44;7.87;;;4.40;;
4519;SDS011;2272;49.226;8.108;2022-09-13T07:26:11;6.60;;;3.70;;
4519;SDS011;2272;49.226;8.108;2022-09-13T07:28:39;7.43;;;3.90;;
4519;SDS011;2272;49.226;8.108;2022-09-13T07:31:10;3.33;;;3.13;;
4519;SDS011;2272;49.226;8.108;2022-09-13T07:33:38;4.80;;;4.40;;
4519;SDS011;2272;49.226;8.108;2022-09-13T07:36:06;6.83;;;3.30;;
4519;SDS011;2272;49.226;8.108;2022-09-13T07:38:33;3.90;;;3.63;;
4519;SDS011;2272;49.226;8.108;2022-09-13T07:41:01;3.63;;;3.43;;
4519;SDS011;2272;49.226;8.108;2022-09-13T07:43:30;3.40;;;3.20;;
4519;SDS011;2272;49.226;8.108;2022-09-13T07:45:58;3.97;;;3.63;;
4519;SDS011;2272;49.226;8.108;2022-09-13T07:48:28;3.40;;;3.10;;
4519;SDS011;2272;49.226;8.108;2022-09-13T07:50:56;4.13;;;3.13;;
4519;SDS011;2272;49.226;8.108;2022-09-13T07:53:23;4.40;;;4.10;;
4519;SDS011;2272;49.226;8.108;2022-09-13T07:55:51;7.00;;;3.87;;
4519;SDS011;2272;49.226;8.108;2022-09-13T07:58:17;3.13;;;3.00;;
4519;SDS011;2272;49.226;8.108;2022-09-13T08:00:44;3.03;;;2.93;;
4519;SDS011;2272;49.226;8.108;2022-09-13T08:03:11;3.87;;;3.53;;
4519;SDS011;2272;49.226;8.108;2022-09-13T08:05:39;4.37;;;3.80;;
4519;SDS011;2272;49.226;8.108;2022-09-13T08:08:06;3.83;;;3.00;;
4519;SDS011;2272;49.226;8.108;2022-09-13T08:10:33;6.10;;;4.03;;
4519;SDS011;2272;49.226;8.108;2022-09-13T08:13:00;7.13;;;4.20;;
4519;SDS011;2272;49.226;8.108;2022-09-13T08:15:27;5.90;;;5.40;;
4519;SDS011;2272;49.226;8.108;2022-09-13T08:17:53;8.00;;;4.80;;
4519;SDS011;2272;49.226;8.108;2022-09-13T08:20:20;7.20;;;5.27;;
4519;SDS011;2272;49.226;8.108;2022-09-13T08:22:49;15.07;;;5.10;;
4519;SDS011;2272;49.226;8.108;2022-09-13T08:25:15;6.30;;;4.90;;
4519;SDS011;2272;49.226;8.108;2022-09-13T08:27:42;5.60;;;5.20;;
4519;SDS011;2272;49.226;8.108;2022-09-13T08:30:09;5.07;;;4.17;;
4519;SDS011;2272;49.226;8.108;2022-09-13T08:32:37;7.83;;;5.27;;
4519;SDS011;2272;49.226;8.108;2022-09-13T08:35:03;5.23;;;4.83;;
4519;SDS011;2272;49.226;8.108;2022-09-13T08:37:30;5.60;;;4.67;;
4519;SDS011;2272;49.226;8.108;2022-09-13T08:40:00;15.67;;;5.20;;
4519;SDS011;2272;49.226;8.108;2022-09-13T08:42:30;4.73;;;4.20;;
4519;SDS011;2272;49.226;8.108;2022-09-13T08:45:13;4.87;;;4.43;;
4519;SDS011;2272;49.226;8.108;2022-09-13T08:47:42;7.83;;;4.53;;
4519;SDS011;2272;49.226;8.108;2022-09-13T08:50:14;36.87;;;4.50;;
4519;SDS011;2272;49.226;8.108;2022-09-13T08:52:46;4.17;;;3.73;;
4519;SDS011;2272;49.226;8.108;2022-09-13T08:55:26;15.63;;;4.87;;
4519;SDS011;2272;49.226;8.108;2022-09-13T08:58:01;6.40;;;5.50;;
4519;SDS011;2272;49.226;8.108;2022-09-13T09:00:34;4.20;;;3.80;;
4519;SDS011;2272;49.226;8.108;2022-09-13T09:03:09;5.07;;;3.77;;
4519;SDS011;2272;49.226;8.108;2022-09-13T09:05:44;5.87;;;4.97;;
4519;SDS011;2272;49.226;8.108;2022-09-13T09:08:13;3.90;;;3.60;;
4519;SDS011;2272;49.226;8.108;2022-09-13T09:10:50;3.33;;;3.13;;
4519;SDS011;2272;49.226;8.108;2022-09-13T09:13:20;3.60;;;3.40;;
4519;SDS011;2272;49.226;8.108;2022-09-13T09:15:52;4.23;;;3.73;;
4519;SDS011;2272;49.226;8.108;2022-09-13T09:18:22;6.00;;;3.63;;
4519;SDS011;2272;49.226;8.108;2022-09-13T09:20:53;6.40;;;3.80;;
4519;SDS011;2272;49.226;8.108;2022-09-13T09:23:22;7.30;;;3.90;;
4519;SDS011;2272;49.226;8.108;2022-09-13T09:25:56;3.60;;;3.40;;
4519;SDS011;2272;49.226;8.108;2022-09-13T09:28:30;6.60;;;3.37;;
4519;SDS011;2272;49.226;8.108;2022-09-13T09:30:58;6.00;;;3.50;;
4519;SDS011;2272;49.226;8.108;2022-09-13T09:33:32;3.53;;;3.33;;
4519;SDS011;2272;49.226;8.108;2022-09-13T09:36:10;3.60;;;3.40;;
4519;SDS011;2272;49.226;8.108;2022-09-13T09:38:44;9.10;;;3.70;;
4519;SDS011;2272;49.226;8.108;2022-09-13T09:41:13;4.93;;;3.57;;
4519;SDS011;2272;49.226;8.108;2022-09-13T09:43:48;3.70;;;3.40;;
4519;SDS011;2272;49.226;8.108;2022-09-13T09:46:19;3.50;;;3.30;;
4519;SDS011;2272;49.226;8.108;2022-09-13T09:48:51;3.63;;;3.33;;
4519;SDS011;2272;49.226;8.108;2022-09-13T09:51:22;4.80;;;3.23;;
4519;SDS011;2272;49.226;8.108;2022-09-13T09:53:52;3.60;;;3.30;;
4519;SDS011;2272;49.226;8.108;2022-09-13T09:56:25;7.20;;;2.83;;
4519;SDS011;2272;49.226;8.108;2022-09-13T09:58:55;3.57;;;3.27;;
4519;SDS011;2272;49.226;8.108;2022-09-13T10:01:23;3.77;;;3.57;;
4519;SDS011;2272;49.226;8.108;2022-09-13T10:03:53;7.13;;;3.70;;
4519;SDS011;2272;49.226;8.108;2022-09-13T10:06:25;6.30;;;2.93;;
4519;SDS011;2272;49.226;8.108;2022-09-13T10:08:54;3.30;;;3.10;;
4519;SDS011;2272;49.226;8.108;2022-09-13T10:11:37;4.00;;;2.73;;
4519;SDS011;2272;49.226;8.108;2022-09-13T10:14:21;4.00;;;3.70;;
4519;SDS011;2272;49.226;8.108;2022-09-13T10:17:04;7.47;;;3.10;;
4519;SDS011;2272;49.226;8.108;2022-09-13T10:19:39;10.57;;;3.70;;
4519;SDS011;2272;49.226;8.108;2022-09-13T10:22:09;4.03;;;3.30;;
4519;SDS011;2272;49.226;8.108;2022-09-13T10:24:37;3.10;;;2.90;;
4519;SDS011;2272;49.226;8.108;2022-09-13T10:27:06;5.33;;;3.63;;
4519;SDS011;2272;49.226;8.108;2022-09-13T10:29:47;4.17;;;3.10;;
4519;SDS011;2272;49.226;8.108;2022-09-13T10:32:18;11.30;;;3.80;;
4519;SDS011;2272;49.226;8.108;2022-09-13T10:34:46;6.60;;;3.30;;
4519;SDS011;2272;49.226;8.108;2022-09-13T10:37:15;3.27;;;3.07;;
4519;SDS011;2272;49.226;8.108;2022-09-13T10:39:54;5.00;;;3.23;;
4519;SDS011;2272;49.226;8.108;2022-09-13T10:42:25;4.63;;;3.60;;
4519;SDS011;2272;49.226;8.108;2022-09-13T10:44:54;8.93;;;3.53;;
4519;SDS011;2272;49.226;8.108;2022-09-13T10:47:24;3.43;;;3.13;;
4519;SDS011;2272;49.226;8.108;2022-09-13T10:49:53;3.60;;;3.30;;
4519;SDS011;2272;49.226;8.108;2022-09-13T10:52:25;2.60;;;2.50;;
4519;SDS011;2272;49.226;8.108;2022-09-13T10:58:17;6.33;;;3.20;;
4519;SDS011;2272;49.226;8.108;2022-09-13T11:00:48;2.70;;;2.60;;
4519;SDS011;2272;49.226;8.108;2022-09-13T11:03:35;2.73;;;2.63;;
4519;SDS011;2272;49.226;8.108;2022-09-13T11:06:21;4.00;;;3.33;;
4519;SDS011;2272;49.226;8.108;2022-09-13T11:08:55;3.27;;;3.07;;
4519;SDS011;2272;49.226;8.108;2022-09-13T11:11:30;9.30;;;3.40;;
4519;SDS011;2272;49.226;8.108;2022-09-13T11:14:08;17.47;;;3.80;;
4519;SDS011;2272;49.226;8.108;2022-09-13T11:16:50;4.10;;;3.00;;
4519;SDS011;2272;49.226;8.108;2022-09-13T11:19:27;7.37;;;3.10;;
4519;SDS011;2272;49.226;8.108;2022-09-13T11:22:09;2.83;;;2.63;;
4519;SDS011;2272;49.226;8.108;2022-09-13T11:24:48;3.03;;;2.87;;
4519;SDS011;2272;49.226;8.108;2022-09-13T11:27:28;3.83;;;2.70;;
4519;SDS011;2272;49.226;8.108;2022-09-13T11:30:07;2.90;;;2.70;;
4519;SDS011;2272;49.226;8.108;2022-09-13T11:35:33;3.33;;;3.03;;
4519;SDS011;2272;49.226;8.108;2022-09-13T11:38:22;3.40;;;3.17;;
4519;SDS011;2272;49.226;8.108;2022-09-13T11:41:01;6.83;;;3.03;;
4519;SDS011;2272;49.226;8.108;2022-09-13T11:43:40;9.30;;;3.20;;
4519;SDS011;2272;49.226;8.108;2022-09-13T11:46:26;2.80;;;2.60;;
4519;SDS011;2272;49.226;8.108;2022-09-13T11:52:06;3.53;;;3.13;;
4519;SDS011;2272;49.226;8.108;2022-09-13T11:54:43;21.60;;;3.10;;
4519;SDS011;2272;49.226;8.108;2022-09-13T11:57:20;9.03;;;3.37;;
4519;SDS011;2272;49.226;8.108;2022-09-13T11:59:51;2.63;;;2.53;;
4519;SDS011;2272;49.226;8.108;2022-09-13T12:02:25;2.93;;;2.83;;
4519;SDS011;2272;49.226;8.108;2022-09-13T12:04:56;4.20;;;3.27;;
4519;SDS011;2272;49.226;8.108;2022-09-13T12:07:28;3.23;;;3.03;;
4519;SDS011;2272;49.226;8.108;2022-09-13T12:09:59;3.10;;;2.90;;
4519;SDS011;2272;49.226;8.108;2022-09-13T12:12:32;3.63;;;2.70;;
4519;SDS011;2272;49.226;8.108;2022-09-13T12:15:02;3.00;;;2.80;;
4519;SDS011;2272;49.226;8.108;2022-09-13T12:17:35;2.77;;;2.50;;
4519;SDS011;2272;49.226;8.108;2022-09-13T12:20:10;2.40;;;2.30;;
4519;SDS011;2272;49.226;8.108;2022-09-13T12:22:40;8.23;;;2.70;;
4519;SDS011;2272;49.226;8.108;2022-09-13T12:25:11;2.60;;;2.50;;
4519;SDS011;2272;49.226;8.108;2022-09-13T12:27:47;2.50;;;2.40;;
4519;SDS011;2272;49.226;8.108;2022-09-13T12:30:21;3.53;;;3.23;;
4519;SDS011;2272;49.226;8.108;2022-09-13T12:32:53;8.17;;;3.47;;
4519;SDS011;2272;49.226;8.108;2022-09-13T12:35:22;2.60;;;2.43;;
4519;SDS011;2272;49.226;8.108;2022-09-13T12:38:13;2.60;;;2.50;;
4519;SDS011;2272;49.226;8.108;2022-09-13T12:49:32;2.53;;;2.30;;
4519;SDS011;2272;49.226;8.108;2022-09-13T12:55:05;3.10;;;2.90;;
4519;SDS011;2272;49.226;8.108;2022-09-13T12:57:56;5.30;;;2.70;;
4519;SDS011;2272;49.226;8.108;2022-09-13T13:00:35;10.57;;;3.07;;
4519;SDS011;2272;49.226;8.108;2022-09-13T13:03:11;6.73;;;2.30;;
4519;SDS011;2272;49.226;8.108;2022-09-13T13:05:42;3.00;;;2.70;;
4519;SDS011;2272;49.226;8.108;2022-09-13T13:13:17;4.13;;;3.10;;
4519;SDS011;2272;49.226;8.108;2022-09-13T13:15:58;2.57;;;2.47;;
4519;SDS011;2272;49.226;8.108;2022-09-13T13:18:28;4.40;;;2.80;;
4519;SDS011;2272;49.226;8.108;2022-09-13T13:26:56;2.33;;;2.20;;
4519;SDS011;2272;49.226;8.108;2022-09-13T13:29:24;2.33;;;1.60;;
4519;SDS011;2272;49.226;8.108;2022-09-13T13:32:03;7.43;;;2.00;;
4519;SDS011;2272;49.226;8.108;2022-09-13T13:34:38;1.93;;;1.20;;
4519;SDS011;2272;49.226;8.108;2022-09-13T13:50:29;1.40;;;1.40;;
4519;SDS011;2272;49.226;8.108;2022-09-13T13:52:57;3.13;;;1.93;;
4519;SDS011;2272;49.226;8.108;2022-09-13T13:55:40;3.00;;;1.90;;
4519;SDS011;2272;49.226;8.108;2022-09-13T13:58:11;1.90;;;1.40;;
4519;SDS011;2272;49.226;8.108;2022-09-13T14:00:51;1.63;;;1.50;;
4519;SDS011;2272;49.226;8.108;2022-09-13T14:03:22;1.70;;;1.67;;
4519;SDS011;2272;49.226;8.108;2022-09-13T14:05:55;6.93;;;1.30;;
4519;SDS011;2272;49.226;8.108;2022-09-13T14:08:37;1.80;;;1.70;;
4519;SDS011;2272;49.226;8.108;2022-09-13T14:11:21;1.40;;;1.40;;
4519;SDS011;2272;49.226;8.108;2022-09-13T14:14:05;2.00;;;1.90;;
4519;SDS011;2272;49.226;8.108;2022-09-13T14:16:49;10.23;;;2.03;;
4519;SDS011;2272;49.226;8.108;2022-09-13T14:19:24;2.00;;;1.90;;
4519;SDS011;2272;49.226;8.108;2022-09-13T14:24:40;21.10;;;1.90;;
4519;SDS011;2272;49.226;8.108;2022-09-13T14:27:12;3.10;;;1.70;;
4519;SDS011;2272;49.226;8.108;2022-09-13T14:29:43;10.53;;;2.17;;
4519;SDS011;2272;49.226;8.108;2022-09-13T14:32:12;1.63;;;1.60;;
4519;SDS011;2272;49.226;8.108;2022-09-13T14:34:49;2.03;;;1.93;;
4519;SDS011;2272;49.226;8.108;2022-09-13T14:37:22;2.03;;;1.93;;
4519;SDS011;2272;49.226;8.108;2022-09-13T14:39:52;1.80;;;1.70;;
4519;SDS011;2272;49.226;8.108;2022-09-13T14:42:20;3.20;;;1.97;;
4519;SDS011;2272;49.226;8.108;2022-09-13T14:44:47;3.47;;;1.60;;
4519;SDS011;2272;49.226;8.108;2022-09-13T14:47:15;8.80;;;1.60;;
4519;SDS011;2272;49.226;8.108;2022-09-13T14:49:49;1.60;;;1.53;;
4519;SDS011;2272;49.226;8.108;2022-09-13T14:52:21;1.60;;;1.50;;
4519;SDS011;2272;49.226;8.108;2022-09-13T14:54:51;1.90;;;1.73;;
4519;SDS011;2272;49.226;8.108;2022-09-13T14:57:22;5.43;;;3.10;;
4519;SDS011;2272;49.226;8.108;2022-09-13T14:59:53;2.47;;;2.30;;
4519;SDS011;2272;49.226;8.108;2022-09-13T15:02:23;1.87;;;1.80;;
4519;SDS011;2272;49.226;8.108;2022-09-13T15:04:52;2.53;;;1.67;;
4519;SDS011;2272;49.226;8.108;2022-09-13T15:07:22;2.50;;;1.60;;
4519;SDS011;2272;49.226;8.108;2022-09-13T15:09:54;2.23;;;2.03;;
4519;SDS011;2272;49.226;8.108;2022-09-13T15:12:24;3.30;;;1.87;;
4519;SDS011;2272;49.226;8.108;2022-09-13T15:17:50;3.67;;;2.20;;
4519;SDS011;2272;49.226;8.108;2022-09-13T15:20:22;1.90;;;1.80;;
4519;SDS011;2272;49.226;8.108;2022-09-13T15:22:51;3.73;;;2.03;;
4519;SDS011;2272;49.226;8.108;2022-09-13T15:25:19;8.20;;;2.07;;
4519;SDS011;2272;49.226;8.108;2022-09-13T15:27:50;5.83;;;2.20;;
4519;SDS011;2272;49.226;8.108;2022-09-13T15:30:22;3.70;;;1.80;;
4519;SDS011;2272;49.226;8.108;2022-09-13T15:33:04;2.90;;;2.70;;
4519;SDS011;2272;49.226;8.108;2022-09-13T15:35:42;5.93;;;2.03;;
4519;SDS011;2272;49.226;8.108;2022-09-13T15:38:16;5.27;;;2.23;;
4519;SDS011;2272;49.226;8.108;2022-09-13T15:40:46;2.33;;;2.00;;
4519;SDS011;2272;49.226;8.108;2022-09-13T15:43:23;4.40;;;2.10;;
4519;SDS011;2272;49.226;8.108;2022-09-13T15:45:50;3.13;;;2.13;;
4519;SDS011;2272;49.226;8.108;2022-09-13T15:48:19;5.20;;;2.13;;
4519;SDS011;2272;49.226;8.108;2022-09-13T15:51:01;6.30;;;5.20;;
4519;SDS011;2272;49.226;8.108;2022-09-13T15:53:32;3.23;;;2.93;;
4519;SDS011;2272;49.226;8.108;2022-09-13T15:55:59;3.00;;;2.10;;
4519;SDS011;2272;49.226;8.108;2022-09-13T15:58:27;1.67;;;1.57;;
4519;SDS011;2272;49.226;8.108;2022-09-13T16:00:54;10.43;;;2.47;;
4519;SDS011;2272;49.226;8.108;2022-09-13T16:03:20;2.03;;;1.93;;
4519;SDS011;2272;49.226;8.108;2022-09-13T16:05:47;2.37;;;2.17;;
4519;SDS011;2272;49.226;8.108;2022-09-13T16:08:14;4.50;;;2.10;;
4519;SDS011;2272;49.226;8.108;2022-09-13T16:10:42;2.83;;;1.87;;
4519;SDS011;2272;49.226;8.108;2022-09-13T16:13:09;2.03;;;1.93;;
4519;SDS011;2272;49.226;8.108;2022-09-13T16:15:35;6.67;;;2.20;;
4519;SDS011;2272;49.226;8.108;2022-09-13T16:18:02;5.80;;;2.37;;
4519;SDS011;2272;49.226;8.108;2022-09-13T16:20:29;4.83;;;2.20;;
4519;SDS011;2272;49.226;8.108;2022-09-13T16:22:56;3.43;;;2.47;;
4519;SDS011;2272;49.226;8.108;2022-09-13T16:25:23;3.53;;;1.90;;
4519;SDS011;2272;49.226;8.108;2022-09-13T16:27:51;4.10;;;1.77;;
4519;SDS011;2272;49.226;8.108;2022-09-13T16:30:19;9.43;;;2.53;;
4519;SDS011;2272;49.226;8.108;2022-09-13T16:32:47;4.10;;;2.23;;
4519;SDS011;2272;49.226;8.108;2022-09-13T16:35:14;2.50;;;2.30;;
4519;SDS011;2272;49.226;8.108;2022-09-13T16:37:42;5.00;;;2.50;;
4519;SDS011;2272;49.226;8.108;2022-09-13T16:40:09;6.20;;;2.60;;
4519;SDS011;2272;49.226;8.108;2022-09-13T16:42:37;2.90;;;2.27;;